createdAt,value
2022-12-11T00:00:44.982Z,81.66
2022-12-11T00:03:15.876Z,80.96
2022-12-11T00:05:43.862Z,81.09
2022-12-11T00:08:11.088Z,81.72
2022-12-11T00:10:38.245Z,81.18
2022-12-11T00:13:04.927Z,80.40
2022-12-11T00:15:31.726Z,80.13
2022-12-11T00:17:58.239Z,80.37
2022-12-11T00:20:24.772Z,80.52
2022-12-11T00:22:51.161Z,80.15
2022-12-11T00:25:17.518Z,80.38
2022-12-11T00:27:45.905Z,80.51
2022-12-11T00:30:12.770Z,79.72
2022-12-11T00:32:39.149Z,79.67
2022-12-11T00:35:05.899Z,79.57
2022-12-11T00:37:32.351Z,79.16
2022-12-11T00:39:58.797Z,79.26
2022-12-11T00:42:25.188Z,79.08
2022-12-11T00:44:52.102Z,79.68
2022-12-11T00:47:18.478Z,79.26
2022-12-11T00:49:49.630Z,78.79
2022-12-11T00:52:17.696Z,79.43
2022-12-11T00:54:44.313Z,79.05
2022-12-11T00:57:10.685Z,78.96
2022-12-11T00:59:37.096Z,78.76
2022-12-11T01:02:03.508Z,78.42
2022-12-11T01:04:30.011Z,78.72
2022-12-11T01:06:56.487Z,78.57
2022-12-11T01:09:41.427Z,78.54
2022-12-11T01:12:07.776Z,78.75
2022-12-11T01:14:34.189Z,78.23
2022-12-11T01:17:00.629Z,77.84
2022-12-11T01:19:27.037Z,77.47
2022-12-11T01:21:53.554Z,77.82
2022-12-11T01:24:19.945Z,77.59
2022-12-11T01:26:46.310Z,77.26
2022-12-11T01:29:12.696Z,77.05
2022-12-11T01:31:39.172Z,76.92
2022-12-11T01:34:05.492Z,76.98
2022-12-11T01:36:31.857Z,77.03
2022-12-11T01:38:58.219Z,77.28
2022-12-11T01:41:24.632Z,76.87
2022-12-11T01:44:16.054Z,76.58
2022-12-11T01:46:43.092Z,77.02
2022-12-11T01:49:13.797Z,77.29
2022-12-11T01:51:48.758Z,76.68
2022-12-11T01:54:18.525Z,77.52
2022-12-11T01:56:46.466Z,77.60
2022-12-11T01:59:15.792Z,77.09
2022-12-11T02:01:54.581Z,77.04
2022-12-11T02:04:21.302Z,76.92
2022-12-11T02:06:50.618Z,77.48
2022-12-11T02:09:20.639Z,76.80
2022-12-11T02:11:55.013Z,76.52
2022-12-11T02:14:43.335Z,76.49
2022-12-11T02:17:19.451Z,76.50
2022-12-11T02:20:08.271Z,76.36
2022-12-11T02:22:51.674Z,76.56
2022-12-11T02:25:43.101Z,76.76
2022-12-11T02:28:20.976Z,77.18
2022-12-11T02:30:51.589Z,76.90
2022-12-11T02:33:23.364Z,77.43
2022-12-11T02:35:50.523Z,76.85
2022-12-11T02:38:24.341Z,76.88
2022-12-11T02:40:53.536Z,76.96
2022-12-11T02:43:22.357Z,76.48
2022-12-11T02:45:51.258Z,76.72
2022-12-11T02:48:20.296Z,76.83
2022-12-11T02:50:48.865Z,77.29
2022-12-11T02:53:19.658Z,77.32
2022-12-11T02:55:49.938Z,77.00
2022-12-11T02:58:19.542Z,76.45
2022-12-11T03:00:46.379Z,77.41
2022-12-11T03:03:13.840Z,77.41
2022-12-11T03:05:41.919Z,77.26
2022-12-11T03:08:08.400Z,77.83
2022-12-11T03:10:35.103Z,78.37
2022-12-11T03:13:02.973Z,77.61
2022-12-11T03:15:41.549Z,77.41
2022-12-11T03:18:17.627Z,77.31
2022-12-11T03:20:47.502Z,77.86
2022-12-11T03:23:35.443Z,77.69
2022-12-11T03:26:04.508Z,77.78
2022-12-11T03:28:49.234Z,77.61
2022-12-11T03:31:45.593Z,77.35
2022-12-11T03:34:41.480Z,77.22
2022-12-11T03:37:09.618Z,77.44
2022-12-11T03:39:41.141Z,77.25
2022-12-11T03:42:11.771Z,77.07
2022-12-11T03:44:38.459Z,77.56
2022-12-11T03:47:08.228Z,77.84
2022-12-11T03:49:41.812Z,77.26
2022-12-11T03:52:12.171Z,76.92
2022-12-11T03:54:40.640Z,77.22
2022-12-11T03:57:08.376Z,77.21
2022-12-11T03:59:34.818Z,77.17
2022-12-11T04:02:01.336Z,77.26
2022-12-11T04:04:28.050Z,77.97
2022-12-11T04:06:54.451Z,77.39
2022-12-11T04:09:20.812Z,77.09
2022-12-11T04:11:47.198Z,77.24
2022-12-11T04:14:33.306Z,76.43
2022-12-11T04:17:01.208Z,76.67
2022-12-11T04:19:46.235Z,77.04
2022-12-11T04:22:33.179Z,76.73
2022-12-11T04:25:00.554Z,76.53
2022-12-11T04:27:45.865Z,76.52
2022-12-11T04:30:24.662Z,76.67
2022-12-11T04:32:54.252Z,76.33
2022-12-11T04:35:21.062Z,76.21
2022-12-11T04:37:47.548Z,76.38
2022-12-11T04:40:17.260Z,76.26
2022-12-11T04:42:43.698Z,76.58
2022-12-11T04:45:11.636Z,76.30
2022-12-11T04:47:39.632Z,77.23
2022-12-11T04:50:07.748Z,76.31
2022-12-11T04:52:34.182Z,75.74
2022-12-11T04:55:00.490Z,76.48
2022-12-11T04:57:26.809Z,76.01
2022-12-11T04:59:53.141Z,75.87
2022-12-11T05:02:19.566Z,76.11
2022-12-11T05:04:46.028Z,75.69
2022-12-11T05:07:12.404Z,76.14
2022-12-11T05:09:38.783Z,76.46
2022-12-11T05:12:05.271Z,75.92
2022-12-11T05:14:32.353Z,76.47
2022-12-11T05:16:59.530Z,75.91
2022-12-11T05:19:26.767Z,76.10
2022-12-11T05:21:53.301Z,76.12
2022-12-11T05:24:19.791Z,76.42
2022-12-11T05:26:46.166Z,76.13
2022-12-11T05:29:12.551Z,76.07
2022-12-11T05:31:38.993Z,75.73
2022-12-11T05:34:05.379Z,75.53
2022-12-11T05:36:33.670Z,75.61
2022-12-11T05:39:01.137Z,75.48
2022-12-11T05:41:29.469Z,75.39
2022-12-11T05:43:56.144Z,75.35
2022-12-11T05:46:25.332Z,75.45
2022-12-11T05:48:54.837Z,75.43
2022-12-11T05:51:21.359Z,75.35
2022-12-11T05:53:49.546Z,75.21
2022-12-11T05:56:19.633Z,75.25
2022-12-11T05:58:47.642Z,74.87
2022-12-11T06:01:26.390Z,74.97
2022-12-11T06:03:54.124Z,74.78
2022-12-11T06:06:21.014Z,74.66
2022-12-11T06:08:51.153Z,74.92
2022-12-11T06:11:23.571Z,74.93
2022-12-11T06:13:50.469Z,74.50
2022-12-11T06:16:16.807Z,74.37
2022-12-11T06:18:44.792Z,74.34
2022-12-11T06:21:15.768Z,74.63
2022-12-11T06:23:43.121Z,74.26
2022-12-11T06:26:10.653Z,74.20
2022-12-11T06:28:37.602Z,74.14
2022-12-11T06:31:05.225Z,73.35
2022-12-11T06:33:31.936Z,73.14
2022-12-11T06:36:05.582Z,73.38
2022-12-11T06:38:32.213Z,73.01
2022-12-11T06:41:00.933Z,72.63
2022-12-11T06:43:27.246Z,72.51
2022-12-11T06:45:54.509Z,72.59
2022-12-11T06:48:23.547Z,73.05
2022-12-11T06:50:49.941Z,72.36
2022-12-11T06:53:17.821Z,72.95
2022-12-11T06:55:44.239Z,73.16
2022-12-11T06:58:11.456Z,72.89
2022-12-11T07:00:38.921Z,72.72
2022-12-11T07:03:05.673Z,73.02
2022-12-11T07:05:32.797Z,72.21
2022-12-11T07:07:59.616Z,72.07
2022-12-11T07:10:26.230Z,71.69
2022-12-11T07:12:53.505Z,71.67
2022-12-11T07:15:19.990Z,71.59
2022-12-11T07:17:46.710Z,71.52
2022-12-11T07:20:13.084Z,71.85
2022-12-11T07:22:45.997Z,71.91
2022-12-11T07:25:13.243Z,71.43
2022-12-11T07:27:39.805Z,71.59
2022-12-11T07:30:06.709Z,71.65
2022-12-11T07:32:33.365Z,71.76
2022-12-11T07:34:59.800Z,71.75
2022-12-11T07:37:26.119Z,70.88
2022-12-11T07:39:52.537Z,71.46
2022-12-11T07:42:18.924Z,70.70
2022-12-11T07:44:45.354Z,71.12
2022-12-11T07:47:11.690Z,70.79
2022-12-11T07:49:38.283Z,71.09
2022-12-11T07:52:04.783Z,71.56
2022-12-11T07:54:35.362Z,71.54
2022-12-11T07:57:17.814Z,70.83
2022-12-11T07:59:46.479Z,70.78
2022-12-11T08:02:15.198Z,71.19
2022-12-11T08:04:41.641Z,71.44
2022-12-11T08:07:12.630Z,70.41
2022-12-11T08:09:39.042Z,70.78
2022-12-11T08:12:05.794Z,70.49
2022-12-11T08:14:32.136Z,71.20
2022-12-11T08:17:00.124Z,70.84
2022-12-11T08:19:26.585Z,70.68
2022-12-11T08:21:52.953Z,70.93
2022-12-11T08:24:20.860Z,70.47
2022-12-11T08:26:48.082Z,70.58
2022-12-11T08:29:14.957Z,70.84
2022-12-11T08:31:41.912Z,70.58
2022-12-11T08:34:08.308Z,70.22
2022-12-11T08:36:34.789Z,70.56
2022-12-11T08:39:01.160Z,70.55
2022-12-11T08:41:30.132Z,70.15
2022-12-11T08:43:58.450Z,70.48
2022-12-11T08:46:27.413Z,70.57
2022-12-11T08:48:55.066Z,70.97
2022-12-11T08:51:24.609Z,70.71
2022-12-11T08:54:01.382Z,70.77
2022-12-11T08:56:29.135Z,70.79
2022-12-11T08:58:55.905Z,69.94
2022-12-11T09:01:25.008Z,69.71
2022-12-11T09:03:52.683Z,69.85
2022-12-11T09:06:21.060Z,69.97
2022-12-11T09:08:52.520Z,70.02
2022-12-11T09:11:25.756Z,70.39
2022-12-11T09:13:53.983Z,70.31
2022-12-11T09:16:23.195Z,71.55
2022-12-11T09:18:51.474Z,70.27
2022-12-11T09:21:20.469Z,70.88
2022-12-11T09:23:47.324Z,70.44
2022-12-11T09:26:16.597Z,69.83
2022-12-11T09:28:46.720Z,69.95
2022-12-11T09:31:16.965Z,69.45
2022-12-11T09:33:44.125Z,69.20
2022-12-11T09:36:12.047Z,69.44
2022-12-11T09:38:39.553Z,69.49
2022-12-11T09:41:21.385Z,69.64
2022-12-11T09:44:02.839Z,70.06
2022-12-11T09:46:34.017Z,69.98
2022-12-11T09:49:04.539Z,70.08
2022-12-11T09:51:39.916Z,70.05
2022-12-11T09:54:06.528Z,70.55
2022-12-11T09:56:39.192Z,69.81
2022-12-11T09:59:16.973Z,70.02
2022-12-11T10:01:53.879Z,69.51
2022-12-11T10:04:39.133Z,69.65
2022-12-11T10:07:30.259Z,69.66
2022-12-11T10:09:56.601Z,69.91
2022-12-11T10:12:29.275Z,69.73
2022-12-11T10:15:10.646Z,69.64
2022-12-11T10:17:38.906Z,70.50
2022-12-11T10:20:28.693Z,70.11
2022-12-11T10:22:56.931Z,70.36
2022-12-11T10:25:34.299Z,69.67
2022-12-11T10:28:11.466Z,69.76
2022-12-11T10:30:40.886Z,69.88
2022-12-11T10:33:22.676Z,69.93
2022-12-11T10:35:54.804Z,70.67
2022-12-11T10:38:38.252Z,69.67
2022-12-11T10:41:11.221Z,70.46
2022-12-11T10:43:40.276Z,69.49
2022-12-11T10:46:18.086Z,69.82
2022-12-11T10:48:53.751Z,69.28
2022-12-11T10:51:24.449Z,68.76
2022-12-11T10:54:02.600Z,68.41
2022-12-11T10:56:34.035Z,67.80
2022-12-11T10:59:01.248Z,68.52
2022-12-11T11:01:29.796Z,68.97
2022-12-11T11:04:21.135Z,68.73
2022-12-11T11:06:48.863Z,68.29
2022-12-11T11:09:35.510Z,68.69
2022-12-11T11:12:07.592Z,67.97
2022-12-11T11:14:34.486Z,67.96
2022-12-11T11:17:01.351Z,67.25
2022-12-11T11:19:32.294Z,67.48
2022-12-11T11:22:14.200Z,67.72
2022-12-11T11:24:44.672Z,67.77
2022-12-11T11:27:26.999Z,67.83
2022-12-11T11:29:59.556Z,67.13
2022-12-11T11:32:33.135Z,67.87
2022-12-11T11:35:26.549Z,66.65
2022-12-11T11:38:19.075Z,67.21
2022-12-11T11:41:06.619Z,66.91
2022-12-11T11:43:55.585Z,67.63
2022-12-11T11:46:36.579Z,67.22
2022-12-11T11:49:24.850Z,66.89
2022-12-11T11:52:01.575Z,66.86
2022-12-11T11:54:55.341Z,66.94
2022-12-11T11:57:42.410Z,66.58
2022-12-11T12:00:30.220Z,67.11
2022-12-11T12:03:03.444Z,66.63
2022-12-11T12:05:45.054Z,66.33
2022-12-11T12:08:33.752Z,65.70
2022-12-11T12:11:41.762Z,66.72
2022-12-11T12:17:23.324Z,66.07
2022-12-11T12:19:57.174Z,66.29
2022-12-11T12:22:57.310Z,66.61
2022-12-11T12:25:28.552Z,66.55
2022-12-11T12:28:16.145Z,67.12
2022-12-11T12:30:59.734Z,66.63
2022-12-11T12:33:48.331Z,66.89
2022-12-11T12:36:24.412Z,67.10
2022-12-11T12:39:02.012Z,66.85
2022-12-11T12:41:54.674Z,67.68
2022-12-11T12:44:23.785Z,67.54
2022-12-11T12:47:15.075Z,67.56
2022-12-11T12:49:48.666Z,66.99
2022-12-11T12:52:21.795Z,67.14
2022-12-11T12:55:12.433Z,67.58
2022-12-11T12:57:41.879Z,67.86
2022-12-11T13:00:14.818Z,67.59
2022-12-11T13:02:50.238Z,66.87
2022-12-11T13:05:25.350Z,67.06
2022-12-11T13:07:58.063Z,67.82
2022-12-11T13:10:28.563Z,67.53
2022-12-11T13:12:55.167Z,67.53
2022-12-11T13:15:38.915Z,67.93
2022-12-11T13:18:33.930Z,67.79
2022-12-11T13:21:00.920Z,67.42
2022-12-11T13:23:33.912Z,67.95
2022-12-11T13:26:03.192Z,67.34
2022-12-11T13:28:38.736Z,66.91
2022-12-11T13:31:25.509Z,66.94
2022-12-11T13:33:54.637Z,67.37
2022-12-11T13:36:24.509Z,67.79
2022-12-11T13:38:55.376Z,67.64
2022-12-11T13:41:22.408Z,67.71
2022-12-11T13:43:50.302Z,68.09
2022-12-11T13:46:24.511Z,67.91
2022-12-11T13:49:03.561Z,68.07
2022-12-11T13:51:32.344Z,68.01
2022-12-11T13:54:17.626Z,68.45
2022-12-11T13:57:13.247Z,68.07
2022-12-11T13:59:46.488Z,67.94
2022-12-11T14:02:22.553Z,67.94
2022-12-11T14:04:51.577Z,67.68
2022-12-11T14:07:26.094Z,67.43
2022-12-11T14:09:56.899Z,67.52
2022-12-11T14:12:23.312Z,67.69
2022-12-11T14:15:01.974Z,67.70
2022-12-11T14:17:32.118Z,67.17
2022-12-11T14:20:01.979Z,67.77
2022-12-11T14:22:30.422Z,68.09
2022-12-11T14:25:05.307Z,68.34
2022-12-11T14:27:31.737Z,67.94
2022-12-11T14:29:58.467Z,68.09
2022-12-11T14:32:43.421Z,68.34
2022-12-11T14:35:24.693Z,68.32
2022-12-11T14:37:52.917Z,68.71
2022-12-11T14:40:25.253Z,68.74
2022-12-11T14:43:04.221Z,68.24
2022-12-11T14:45:40.575Z,68.29
2022-12-11T14:48:20.489Z,67.91
2022-12-11T14:50:52.405Z,68.54
2022-12-11T14:53:25.750Z,68.62
2022-12-11T14:55:53.221Z,68.69
2022-12-11T14:58:27.113Z,68.50
2022-12-11T15:01:28.162Z,68.38
2022-12-11T15:04:16.480Z,68.66
2022-12-11T15:06:45.853Z,69.19
2022-12-11T15:09:27.699Z,69.35
2022-12-11T15:11:57.200Z,69.09
2022-12-11T15:14:25.573Z,69.04
2022-12-11T15:16:56.054Z,69.19
2022-12-11T15:19:28.725Z,69.41
2022-12-11T15:21:55.458Z,69.22
2022-12-11T15:24:35.239Z,69.67
2022-12-11T15:27:01.731Z,69.79
2022-12-11T15:29:38.421Z,69.08
2022-12-11T15:32:04.730Z,69.34
2022-12-11T15:34:50.688Z,70.05
2022-12-11T15:37:23.182Z,69.48
2022-12-11T15:39:50.268Z,69.39
2022-12-11T15:42:24.892Z,69.48
2022-12-11T15:44:51.709Z,69.98
2022-12-11T15:47:24.756Z,69.50
2022-12-11T15:49:55.669Z,69.41
2022-12-11T15:52:22.094Z,69.97
2022-12-11T15:54:48.416Z,69.96
2022-12-11T15:57:19.155Z,69.70
2022-12-11T15:59:48.629Z,69.62
2022-12-11T16:02:15.450Z,70.06
2022-12-11T16:04:41.835Z,69.58
2022-12-11T16:07:17.608Z,69.43
2022-12-11T16:09:45.079Z,69.87
2022-12-11T16:12:11.896Z,70.33
2022-12-11T16:14:39.131Z,70.44
2022-12-11T16:17:07.193Z,70.32
2022-12-11T16:19:34.510Z,70.01
2022-12-11T16:22:01.009Z,69.59
2022-12-11T16:24:27.908Z,69.82
2022-12-11T16:26:56.115Z,69.81
2022-12-11T16:29:22.957Z,70.36
2022-12-11T16:31:49.425Z,69.98
2022-12-11T16:34:16.226Z,70.37
2022-12-11T16:36:42.750Z,69.91
2022-12-11T16:39:12.049Z,70.08
2022-12-11T16:41:38.786Z,70.63
2022-12-11T16:44:05.601Z,70.25
2022-12-11T16:46:32.322Z,70.69
2022-12-11T16:48:58.807Z,70.65
2022-12-11T16:51:25.213Z,70.77
2022-12-11T16:53:51.819Z,70.99
2022-12-11T16:56:18.264Z,70.03
2022-12-11T16:58:44.630Z,70.53
2022-12-11T17:01:15.490Z,70.42
2022-12-11T17:03:43.436Z,70.60
2022-12-11T17:06:12.016Z,70.43
2022-12-11T17:08:39.342Z,70.83
2022-12-11T17:11:07.597Z,70.82
2022-12-11T17:13:36.355Z,71.13
2022-12-11T17:16:08.397Z,70.84
2022-12-11T17:18:35.311Z,70.96
2022-12-11T17:21:10.144Z,70.50
2022-12-11T17:23:36.676Z,71.01
2022-12-11T17:26:04.477Z,71.36
2022-12-11T17:28:31.524Z,71.13
2022-12-11T17:30:58.249Z,71.45
2022-12-11T17:33:26.324Z,70.88
2022-12-11T17:35:52.738Z,70.58
2022-12-11T17:38:19.118Z,70.35
2022-12-11T17:40:45.899Z,70.08
2022-12-11T17:43:12.538Z,70.08
2022-12-11T17:45:43.478Z,70.62
2022-12-11T17:48:10.262Z,70.47
2022-12-11T17:50:41.564Z,70.61
2022-12-11T17:53:09.331Z,70.67
2022-12-11T17:55:38.086Z,71.41
2022-12-11T17:58:05.445Z,70.77
2022-12-11T18:00:33.536Z,70.63
2022-12-11T18:02:59.955Z,71.05
2022-12-11T18:05:26.299Z,70.80
2022-12-11T18:07:57.527Z,70.95
2022-12-11T18:10:24.942Z,70.74
2022-12-11T18:12:51.351Z,71.23
2022-12-11T18:15:20.554Z,71.36
2022-12-11T18:17:47.130Z,71.85
2022-12-11T18:20:16.626Z,71.67
2022-12-11T18:22:43.467Z,71.94
2022-12-11T18:25:11.972Z,71.62
2022-12-11T18:27:38.891Z,72.17
2022-12-11T18:30:05.939Z,72.01
2022-12-11T18:32:35.196Z,72.33
2022-12-11T18:35:02.499Z,71.96
2022-12-11T18:37:28.825Z,71.85
2022-12-11T18:39:55.158Z,72.14
2022-12-11T18:42:32.864Z,72.04
2022-12-11T18:44:59.762Z,72.09
2022-12-11T18:47:26.242Z,72.25
2022-12-11T18:49:52.590Z,71.70
2022-12-11T18:52:18.913Z,71.97
2022-12-11T18:54:45.714Z,72.04
2022-12-11T18:57:12.037Z,71.77
2022-12-11T18:59:38.893Z,72.03
2022-12-11T19:02:05.428Z,72.26
2022-12-11T19:04:32.628Z,72.17
2022-12-11T19:07:00.695Z,72.05
2022-12-11T19:09:27.282Z,72.07
2022-12-11T19:11:53.751Z,72.26
2022-12-11T19:14:20.209Z,72.15
2022-12-11T19:16:46.568Z,72.02
2022-12-11T19:19:18.268Z,71.99
2022-12-11T19:21:46.031Z,72.23
2022-12-11T19:24:19.083Z,72.29
2022-12-11T19:26:45.696Z,72.27
2022-12-11T19:29:21.236Z,72.06
2022-12-11T19:31:47.951Z,72.01
2022-12-11T19:34:15.245Z,72.28
2022-12-11T19:36:46.520Z,72.08
2022-12-11T19:39:14.327Z,72.32
2022-12-11T19:41:41.400Z,72.52
2022-12-11T19:44:08.364Z,72.24
2022-12-11T19:46:35.444Z,72.41
2022-12-11T19:49:02.153Z,72.55
2022-12-11T19:51:34.217Z,72.59
2022-12-11T19:54:04.454Z,72.53
2022-12-11T19:56:31.644Z,72.67
2022-12-11T19:58:58.748Z,72.53
2022-12-11T20:01:30.056Z,72.91
2022-12-11T20:04:03.075Z,72.87
2022-12-11T20:06:34.463Z,72.88
2022-12-11T20:09:01.888Z,72.96
2022-12-11T20:11:34.888Z,73.05
2022-12-11T20:14:01.248Z,72.87
2022-12-11T20:16:53.867Z,73.01
2022-12-11T20:19:14.660Z,72.61
2022-12-11T20:21:42.088Z,73.14
2022-12-11T20:24:09.358Z,73.31
2022-12-11T20:26:37.962Z,73.25
2022-12-11T20:29:07.236Z,73.12
2022-12-11T20:31:34.013Z,73.38
2022-12-11T20:34:00.407Z,73.15
2022-12-11T20:36:26.808Z,73.26
2022-12-11T20:38:53.335Z,73.38
2022-12-11T20:41:22.304Z,73.40
2022-12-11T20:43:49.938Z,73.28
2022-12-11T20:46:20.876Z,72.77
2022-12-11T20:48:47.899Z,72.61
2022-12-11T20:51:19.669Z,73.10
2022-12-11T20:53:57.341Z,73.38
2022-12-11T20:56:25.659Z,73.26
2022-12-11T20:58:52.171Z,73.01
2022-12-11T21:01:22.445Z,73.12
2022-12-11T21:03:49.335Z,73.08
2022-12-11T21:06:26.276Z,73.00
2022-12-11T21:08:53.615Z,73.10
2022-12-11T21:11:20.476Z,73.42
2022-12-11T21:13:46.917Z,73.01
2022-12-11T21:16:13.365Z,73.54
2022-12-11T21:18:39.831Z,73.25
2022-12-11T21:21:06.504Z,73.69
2022-12-11T21:23:33.685Z,73.47
2022-12-11T21:26:00.569Z,73.29
2022-12-11T21:28:30.560Z,73.40
2022-12-11T21:31:11.137Z,73.46
2022-12-11T21:33:37.584Z,73.50
2022-12-11T21:36:06.151Z,73.24
2022-12-11T21:38:33.244Z,73.82
2022-12-11T21:41:10.410Z,73.83
2022-12-11T21:43:42.787Z,73.37
2022-12-11T21:46:25.386Z,73.18
2022-12-11T21:48:52.152Z,73.74
2022-12-11T21:51:24.794Z,74.23
2022-12-11T21:53:51.849Z,74.12
2022-12-11T21:56:20.447Z,74.36
2022-12-11T21:58:48.370Z,74.33
2022-12-11T22:01:40.713Z,74.02
2022-12-11T22:04:08.199Z,74.10
2022-12-11T22:06:35.198Z,74.09
2022-12-11T22:09:01.871Z,73.98
2022-12-11T22:11:31.110Z,74.03
2022-12-11T22:13:57.954Z,74.14
2022-12-11T22:16:24.632Z,74.52
2022-12-11T22:18:51.014Z,74.61
2022-12-11T22:21:17.525Z,74.50
2022-12-11T22:23:44.704Z,74.38
2022-12-11T22:26:17.830Z,73.83
2022-12-11T22:28:44.135Z,74.52
2022-12-11T22:31:12.585Z,74.37
2022-12-11T22:33:39.280Z,74.19
2022-12-11T22:36:06.408Z,74.17
2022-12-11T22:38:34.623Z,74.69
2022-12-11T22:41:27.633Z,74.47
2022-12-11T22:43:54.798Z,73.93
2022-12-11T22:46:24.593Z,73.67
2022-12-11T22:48:51.649Z,74.09
2022-12-11T22:51:18.224Z,74.50
2022-12-11T22:53:44.723Z,74.50
2022-12-11T22:56:13.216Z,74.69
2022-12-11T22:58:40.419Z,74.78
2022-12-11T23:01:12.255Z,75.06
2022-12-11T23:03:39.056Z,74.48
2022-12-11T23:06:07.963Z,74.28
2022-12-11T23:08:35.163Z,74.58
2022-12-11T23:11:02.370Z,75.10
2022-12-11T23:13:28.952Z,75.42
2022-12-11T23:15:55.309Z,75.14
2022-12-11T23:18:21.635Z,74.95
2022-12-11T23:20:49.271Z,74.79
2022-12-11T23:23:15.668Z,74.84
2022-12-11T23:25:42.090Z,74.80
2022-12-11T23:28:08.431Z,75.05
2022-12-11T23:30:35.109Z,74.78
2022-12-11T23:33:01.507Z,74.77
2022-12-11T23:35:27.867Z,74.61
2022-12-11T23:37:54.241Z,74.80
2022-12-11T23:40:20.560Z,74.62
2022-12-11T23:42:46.949Z,74.65
2022-12-11T23:45:13.519Z,74.94
2022-12-11T23:47:43.164Z,74.91
2022-12-11T23:50:09.878Z,75.21
2022-12-11T23:52:36.256Z,75.48
2022-12-11T23:55:02.733Z,75.47
2022-12-11T23:57:29.147Z,75.34
2022-12-11T23:59:55.443Z,75.44
